EGFF/CWL METAR and TAF weather

Enter ICAO airport designator
Station Type Date Time Source
EGFF METAR 2021/05/12 02:20 UTC NOAA

EGFF 120220Z AUTO 20005KT 170V230 9999 -RA BKN012 OVC026 09/07 Q1007 RERA


Station Type Date Time Source
EGFF Decoded METAR 2021/05/12 02:20 UTC NOAA

Cardiff-Wales Airport, United Kingdom (EGFF) 51-24N 003-21W 0M
May 11, 2021 - 10:20 PM EDT / 2021.05.12 0220 UTC
Wind: from the SSW (200 degrees) at 6 MPH (5 KT) (direction variable):0
Visibility: greater than 7 mile(s):0
Sky conditions: overcast
Weather: light rain
Temperature: 48 F (9 C)
Dew Point: 44 F (7 C)
Relative Humidity: 87%
Pressure (altimeter): 29.74 in. Hg (1007 hPa)
ob: EGFF 120220Z AUTO 20005KT 170V230 9999 -RA BKN012 OVC026 09/07 Q1007 RERA
cycle: 2

Station Type Date Time Source
EGFF TAF 2021/05/12 02:20 UTC NOAA

TAF
AMD EGFF 120213Z 1202/1224 20008KT 9999 FEW010 SCT025
TEMPO 1202/1207 BKN012
TEMPO 1202/1204 4000 SHRA PROB40
TEMPO 1208/1216 6000 SHRA
TEMPO 1216/1224 6000 RA BKN014 PROB30
TEMPO 1218/1224 4000 +RA BKN009

Example: see airport list